»·PEaware :: AFR74 KSEA-LFPG

AFR74 :: KSEA-LFPG

FLIGHT INFORMATION

Flight Status: Arrived
Operator:
Air France
More flights by this operator :: More flights under this callsign
Pilot: Mounir D. (11581)
Aircraft: Unknown
(B748)
More flights by this aircraft type
Origin: KSEA Seattle-Tacoma Intl
United States
Destination: LFPG Charles-De-Gaulle
France
More flights between these airports :: More routes between these airports
Route: +SEA7 ALPSE IWACK J503 YNY J527 BOJAM DCT CALLY J508 YMM DCT 62N100W 65N091W 67N080W 68N070W 68N060W 67N050W 66N040W 64N030W 61N020W DCT AGORI DCT OSBOX DCT REVNU DCT LEDGO N83 NAKID UM25 LUKIP LUKI8D
File this flight plan on PilotEdge
Remarks:
Altitude:
(Current/Filed)
35,000ft
Speed:
(Current/Filed)
450kts
Departed: 12-Jan-19 01:36 PM
Arrived: 13-Jan-19 01:18 AM
Distance/Time
Traveled:
4342nm/11:41
Distance/Time
To Go:
Arrived

Flight Plot

Page will automatically refresh every two minutes.

Flight plan parsing failed; only flown route is shown


Map Options




Map Legend


Flown Route
Filed Route
Departure Airport
Arrival Airport
Navaid (VOR, NDB)
Fix

Horizontal Profiles

Position Reports

Time Latitude Longitude Heading Altitude Ground
Speed
12-Jan-19 13:16 47.453551 -122.303898 128 446ft 0kts
12-Jan-19 13:17 47.453551 -122.303898 128 446ft 0kts
12-Jan-19 13:18 47.453551 -122.303898 128 446ft 0kts
12-Jan-19 13:19 47.453551 -122.303898 128 446ft 0kts
12-Jan-19 13:20 47.453551 -122.303898 128 446ft 0kts
12-Jan-19 13:21 47.453551 -122.303898 128 446ft 0kts
12-Jan-19 13:22 47.453551 -122.303898 128 446ft 0kts
12-Jan-19 13:23 47.453551 -122.303898 128 446ft 0kts
12-Jan-19 13:24 47.453551 -122.303898 128 446ft 0kts
12-Jan-19 13:25 47.453551 -122.303898 128 446ft 0kts
12-Jan-19 13:26 47.453551 -122.303898 128 446ft 0kts
12-Jan-19 13:28 47.453551 -122.303898 128 446ft 0kts
12-Jan-19 13:29 47.453551 -122.303898 128 446ft 0kts
12-Jan-19 13:30 47.453710 -122.303273 33 446ft 3kts
12-Jan-19 13:31 47.454389 -122.304172 287 446ft 6kts
12-Jan-19 13:32 47.456155 -122.305033 1 446ft 8kts
12-Jan-19 13:33 47.460382 -122.304998 359 446ft 30kts
12-Jan-19 13:34 47.463060 -122.305557 322 446ft 0kts
12-Jan-19 13:35 47.461730 -122.307782 179 446ft 37kts
12-Jan-19 13:36 47.420722 -122.307717 179 926ft 207kts
12-Jan-19 13:37 47.356639 -122.302970 176 2370ft 257kts
12-Jan-19 13:38 47.307415 -122.244711 89 4106ft 256kts
12-Jan-19 13:39 47.353370 -122.184543 26 6939ft 211kts
12-Jan-19 13:40 47.413039 -122.167848 7 7626ft 240kts
12-Jan-19 13:41 47.487067 -122.159688 5 8058ft 297kts
12-Jan-19 13:42 47.575868 -122.149845 5 9799ft 335kts
12-Jan-19 13:43 47.677345 -122.138526 4 10714ft 404kts
12-Jan-19 13:44 47.797228 -122.125074 4 12331ft 449kts
12-Jan-19 13:45 47.925279 -122.110724 4 14631ft 471kts
12-Jan-19 13:46 48.058562 -122.095612 4 16719ft 491kts
12-Jan-19 13:47 48.189238 -122.039526 38 18742ft 501kts
12-Jan-19 13:48 48.288433 -121.891019 51 20707ft 511kts
12-Jan-19 13:48 48.368992 -121.758643 50 22313ft 521kts
12-Jan-19 13:49 48.469588 -121.596973 49 24021ft 534kts
12-Jan-19 13:50 48.571303 -121.431965 49 25882ft 536kts
12-Jan-19 13:51 48.671855 -121.267554 50 27757ft 530kts
12-Jan-19 13:53 48.787752 -121.077584 50 29564ft 523kts
12-Jan-19 13:54 48.885526 -120.914835 50 30724ft 521kts
12-Jan-19 13:54 48.973888 -120.791039 35 31551ft 523kts
12-Jan-19 13:55 49.095036 -120.667566 35 32321ft 523kts
12-Jan-19 13:56 49.215652 -120.544966 35 33002ft 521kts
12-Jan-19 13:57 49.336043 -120.420801 34 33569ft 521kts
12-Jan-19 13:58 49.455280 -120.294686 35 34039ft 521kts
12-Jan-19 13:59 49.573909 -120.166129 35 34483ft 520kts
12-Jan-19 14:00 49.692092 -120.037910 34 34918ft 519kts
12-Jan-19 14:01 49.810446 -119.909566 35 35271ft 518kts
12-Jan-19 14:02 49.927956 -119.780682 35 35283ft 518kts
12-Jan-19 14:03 50.045365 -119.651054 35 35284ft 518kts
12-Jan-19 14:04 50.162756 -119.520643 35 35290ft 518kts
12-Jan-19 14:05 50.280082 -119.389499 35 35291ft 518kts
12-Jan-19 14:06 50.396980 -119.258020 35 35294ft 518kts
12-Jan-19 14:07 50.514057 -119.126103 35 35302ft 517kts
12-Jan-19 14:08 50.630428 -118.993091 35 35314ft 516kts
12-Jan-19 14:09 50.752436 -118.874624 25 35338ft 516kts
12-Jan-19 14:10 50.879688 -118.769966 26 35348ft 515kts
12-Jan-19 14:11 51.006047 -118.664037 25 35355ft 515kts
12-Jan-19 14:12 51.133006 -118.557559 25 35357ft 515kts
12-Jan-19 14:13 51.259607 -118.450090 25 35353ft 516kts
12-Jan-19 14:14 51.386168 -118.341909 25 35340ft 516kts
12-Jan-19 14:15 51.512664 -118.233093 25 35325ft 516kts
12-Jan-19 14:16 51.639114 -118.123623 25 35323ft 516kts
12-Jan-19 14:17 51.765493 -118.013512 25 35315ft 517kts
12-Jan-19 14:18 51.892241 -117.902909 25 35307ft 516kts
12-Jan-19 14:19 52.018107 -117.791455 25 35298ft 517kts
12-Jan-19 14:20 52.140994 -117.669706 35 35288ft 520kts
12-Jan-19 14:21 52.253325 -117.520597 36 35275ft 522kts
12-Jan-19 14:22 52.365937 -117.370998 36 35251ft 522kts
12-Jan-19 14:23 52.479599 -117.222082 36 35222ft 522kts
12-Jan-19 14:24 52.592257 -117.072360 36 35191ft 522kts
12-Jan-19 14:25 52.705326 -116.920818 36 35128ft 522kts
12-Jan-19 14:26 52.817888 -116.768878 36 35091ft 522kts
12-Jan-19 14:27 52.930127 -116.616306 36 35071ft 522kts
12-Jan-19 14:28 53.042109 -116.463037 36 35056ft 522kts
12-Jan-19 14:29 53.154191 -116.308574 36 35044ft 523kts
12-Jan-19 14:30 53.266145 -116.153180 36 35038ft 522kts
12-Jan-19 14:31 53.377599 -115.997399 36 35036ft 523kts
12-Jan-19 14:32 53.488729 -115.840970 36 35036ft 521kts
12-Jan-19 14:33 53.599700 -115.683648 36 35033ft 522kts
12-Jan-19 14:34 53.710485 -115.525472 36 35031ft 522kts
12-Jan-19 14:35 53.821075 -115.366438 36 35032ft 522kts
12-Jan-19 14:36 53.931039 -115.207167 36 35032ft 520kts
12-Jan-19 14:37 54.040871 -115.046927 36 35033ft 521kts
12-Jan-19 14:38 54.150764 -114.885451 36 35034ft 520kts
12-Jan-19 14:39 54.259974 -114.723804 36 35035ft 519kts
12-Jan-19 14:40 54.368767 -114.561594 36 35037ft 519kts
12-Jan-19 14:41 54.477182 -114.398764 36 35038ft 518kts
12-Jan-19 14:42 54.585725 -114.234540 36 35040ft 516kts
12-Jan-19 14:43 54.692898 -114.071191 37 35042ft 514kts
12-Jan-19 14:44 54.799527 -113.907480 36 35042ft 513kts
12-Jan-19 14:45 54.906493 -113.742454 36 35044ft 513kts
12-Jan-19 14:46 55.012837 -113.577042 37 35044ft 515kts
12-Jan-19 14:47 55.119365 -113.409196 37 35045ft 515kts
12-Jan-19 14:48 55.229430 -113.249704 33 35045ft 513kts
12-Jan-19 14:49 55.340145 -113.092590 34 35043ft 513kts
12-Jan-19 14:50 55.450500 -112.932459 34 35041ft 514kts
12-Jan-19 14:51 55.560630 -112.771780 34 35039ft 513kts
12-Jan-19 14:52 55.670666 -112.609640 34 35030ft 514kts
12-Jan-19 14:53 55.780505 -112.447142 33 35028ft 514kts
12-Jan-19 14:54 55.890896 -112.284408 34 35024ft 515kts
12-Jan-19 14:55 56.000725 -112.118967 34 35014ft 516kts
12-Jan-19 14:56 56.110232 -111.952796 34 35012ft 516kts
12-Jan-19 14:57 56.219337 -111.785607 34 35013ft 517kts
12-Jan-19 14:58 56.328877 -111.618187 34 35011ft 515kts
12-Jan-19 14:59 56.437972 -111.450768 34 35010ft 515kts
12-Jan-19 15:00 56.546518 -111.281056 35 35010ft 515kts
12-Jan-19 15:01 56.654390 -111.110735 35 35009ft 514kts
12-Jan-19 15:02 56.760282 -110.935609 36 35009ft 515kts
12-Jan-19 15:03 56.865737 -110.759251 36 35010ft 515kts
12-Jan-19 15:04 56.971951 -110.583167 36 35013ft 514kts
12-Jan-19 15:05 57.077554 -110.406235 36 35015ft 514kts
12-Jan-19 15:06 57.182866 -110.227598 37 35016ft 516kts
12-Jan-19 15:07 57.288497 -110.046844 37 35018ft 516kts
12-Jan-19 15:08 57.393270 -109.866068 37 35021ft 515kts
12-Jan-19 15:09 57.498161 -109.683591 37 35023ft 516kts
12-Jan-19 15:10 57.602588 -109.500422 37 35025ft 516kts
12-Jan-19 15:11 57.706426 -109.316767 37 35026ft 516kts
12-Jan-19 15:12 57.810577 -109.131017 38 35026ft 516kts
12-Jan-19 15:13 57.914349 -108.944384 38 35025ft 516kts
12-Jan-19 15:14 58.017815 -108.756725 38 35023ft 517kts
12-Jan-19 15:15 58.121350 -108.567342 38 35019ft 517kts
12-Jan-19 15:16 58.224606 -108.376856 38 35002ft 518kts
12-Jan-19 15:17 58.327584 -108.185236 38 34994ft 518kts
12-Jan-19 15:18 58.430140 -107.992767 38 34986ft 518kts
12-Jan-19 15:19 58.532457 -107.799071 38 34979ft 518kts
12-Jan-19 15:20 58.634691 -107.603839 39 34970ft 518kts
12-Jan-19 15:21 58.736277 -107.408139 39 34961ft 517kts
12-Jan-19 15:22 58.837427 -107.211563 39 34950ft 516kts
12-Jan-19 15:23 58.938284 -107.013823 39 34937ft 516kts
12-Jan-19 15:24 59.038973 -106.814659 39 34927ft 516kts
12-Jan-19 15:25 59.138962 -106.615088 39 34923ft 516kts
12-Jan-19 15:26 59.238699 -106.414284 39 34922ft 516kts
12-Jan-19 15:27 59.338431 -106.211652 39 34920ft 516kts
12-Jan-19 15:28 59.437282 -106.009002 40 34921ft 515kts
12-Jan-19 15:29 59.535941 -105.804904 40 34950ft 515kts
12-Jan-19 15:30 59.634333 -105.599498 40 34951ft 515kts
12-Jan-19 15:31 59.732615 -105.392431 40 34953ft 516kts
12-Jan-19 15:32 59.830475 -105.184348 40 34953ft 516kts
12-Jan-19 15:33 59.928174 -104.974684 41 34949ft 516kts
12-Jan-19 15:34 60.025592 -104.763663 41 34948ft 517kts
12-Jan-19 15:35 60.122864 -104.550973 41 34947ft 518kts
12-Jan-19 15:36 60.219878 -104.336836 41 34946ft 518kts
12-Jan-19 15:37 60.316637 -104.121222 41 34944ft 518kts
12-Jan-19 15:38 60.412981 -103.904468 42 34942ft 518kts
12-Jan-19 15:39 60.509027 -103.686315 42 34939ft 520kts
12-Jan-19 15:41 60.605112 -103.465948 42 34934ft 521kts
12-Jan-19 15:42 60.701193 -103.243406 42 34931ft 522kts
12-Jan-19 15:43 60.796783 -103.019845 43 34926ft 523kts
12-Jan-19 15:44 60.892307 -102.794206 43 34924ft 524kts
12-Jan-19 15:45 60.987606 -102.566848 43 34925ft 525kts
12-Jan-19 15:46 61.082663 -102.337775 44 34919ft 526kts
12-Jan-19 15:47 61.177519 -102.106863 44 34874ft 528kts
12-Jan-19 15:48 61.272243 -101.873916 44 34862ft 529kts
12-Jan-19 15:49 61.366698 -101.639215 45 34854ft 529kts
12-Jan-19 15:50 61.461071 -101.402285 45 34845ft 529kts
12-Jan-19 15:51 61.554729 -101.164692 45 34835ft 529kts
12-Jan-19 15:52 61.648275 -100.924880 45 34804ft 530kts
12-Jan-19 15:53 61.741378 -100.683681 46 34794ft 530kts
12-Jan-19 15:54 61.834412 -100.442355 46 34785ft 531kts
12-Jan-19 15:55 61.926568 -100.197212 47 34776ft 533kts
12-Jan-19 15:56 62.019066 -99.950685 45 34765ft 532kts
12-Jan-19 15:57 62.115190 -99.710665 45 34753ft 531kts
12-Jan-19 15:58 62.210127 -99.468873 45 34741ft 531kts
12-Jan-19 15:59 62.306470 -99.227524 45 34728ft 531kts
12-Jan-19 16:00 62.401388 -98.984284 45 34715ft 530kts
12-Jan-19 16:01 62.495654 -98.739159 46 34702ft 532kts
12-Jan-19 16:02 62.589677 -98.491859 46 34689ft 532kts
12-Jan-19 16:03 62.683413 -98.242581 46 34666ft 532kts
12-Jan-19 16:04 62.776548 -97.992130 47 34657ft 531kts
12-Jan-19 16:05 62.869048 -97.740620 47 34649ft 531kts
12-Jan-19 16:06 62.961040 -97.487676 47 34640ft 531kts
12-Jan-19 16:06 63.037415 -97.275497 47 34633ft 530kts
12-Jan-19 16:07 63.128536 -97.019716 48 34624ft 530kts
12-Jan-19 16:08 63.219307 -96.762011 48 34616ft 530kts
12-Jan-19 16:09 63.309328 -96.503493 48 34608ft 529kts
12-Jan-19 16:10 63.398969 -96.243091 49 34601ft 528kts
12-Jan-19 16:11 63.487927 -95.981668 49 34597ft 529kts
12-Jan-19 16:12 63.576487 -95.718378 49 34593ft 529kts
12-Jan-19 16:13 63.664588 -95.453345 49 34592ft 528kts
12-Jan-19 16:14 63.751938 -95.187519 49 34588ft 527kts
12-Jan-19 16:15 63.838837 -94.919889 50 34588ft 527kts
12-Jan-19 16:16 63.925260 -94.650549 50 34592ft 527kts
12-Jan-19 16:17 64.010919 -94.380368 50 34597ft 527kts
12-Jan-19 16:18 64.096218 -94.108066 50 34601ft 527kts
12-Jan-19 16:19 64.180924 -93.834356 51 34608ft 527kts
12-Jan-19 16:20 64.265300 -93.558368 51 34614ft 526kts
12-Jan-19 16:21 64.348771 -93.281962 51 34638ft 525kts
12-Jan-19 16:22 64.431443 -93.004812 51 34650ft 523kts
12-Jan-19 16:23 64.513611 -92.725913 51 34662ft 523kts
12-Jan-19 16:24 64.595088 -92.445899 51 34674ft 523kts
12-Jan-19 16:25 64.676250 -92.163458 52 34687ft 523kts
12-Jan-19 16:26 64.756431 -91.880877 52 34802ft 521kts
12-Jan-19 16:27 64.836267 -91.597362 51 34815ft 519kts
12-Jan-19 16:28 64.915312 -91.312617 53 34823ft 520kts
12-Jan-19 16:29 64.993129 -91.025531 53 34816ft 519kts
12-Jan-19 16:30 65.063665 -90.726869 58 34825ft 520kts
12-Jan-19 16:31 65.131693 -90.423387 58 34977ft 520kts
12-Jan-19 16:32 65.200421 -90.123022 56 34998ft 518kts
12-Jan-19 16:33 65.269135 -89.820702 57 35012ft 517kts
12-Jan-19 16:34 65.336303 -89.516895 58 35083ft 517kts
12-Jan-19 16:35 65.402513 -89.212603 58 35100ft 516kts
12-Jan-19 16:36 65.468316 -88.905727 58 35115ft 515kts
12-Jan-19 16:37 65.533324 -88.598119 58 35129ft 515kts
12-Jan-19 16:38 65.597613 -88.289436 59 35142ft 514kts
12-Jan-19 16:39 65.661145 -87.979852 59 35152ft 513kts
12-Jan-19 16:40 65.724061 -87.668665 59 35162ft 513kts
12-Jan-19 16:41 65.786311 -87.356144 60 35169ft 513kts
12-Jan-19 16:42 65.847817 -87.042623 60 35176ft 513kts
12-Jan-19 16:43 65.908579 -86.728154 60 35180ft 511kts
12-Jan-19 16:44 65.968655 -86.412394 60 35182ft 511kts
12-Jan-19 16:45 66.028022 -86.095470 61 35187ft 511kts
12-Jan-19 16:46 66.086882 -85.776273 61 35188ft 511kts
12-Jan-19 16:47 66.145093 -85.455530 61 35188ft 511kts
12-Jan-19 16:48 66.202458 -85.134330 62 35189ft 510kts
12-Jan-19 16:49 66.259091 -84.812043 62 35189ft 510kts
12-Jan-19 16:50 66.315086 -84.488103 62 35190ft 509kts
12-Jan-19 16:51 66.370136 -84.164350 63 35195ft 509kts
12-Jan-19 16:52 66.424692 -83.838057 63 35198ft 509kts
12-Jan-19 16:53 66.478601 -83.510143 63 35202ft 509kts
12-Jan-19 16:54 66.531699 -83.181577 64 35235ft 510kts
12-Jan-19 16:55 66.584264 -82.850621 64 35294ft 509kts
12-Jan-19 16:56 66.636116 -82.518336 64 35300ft 509kts
12-Jan-19 16:57 66.687070 -82.185950 65 35304ft 508kts
12-Jan-19 16:58 66.737284 -81.852400 65 35307ft 509kts
12-Jan-19 16:59 66.786915 -81.516749 65 35344ft 509kts
12-Jan-19 17:00 66.835921 -81.179094 66 35350ft 509kts
12-Jan-19 17:01 66.884049 -80.841211 66 35353ft 509kts
12-Jan-19 17:02 66.932621 -80.501549 67 35355ft 509kts
12-Jan-19 17:03 66.978586 -80.159795 67 35358ft 509kts
12-Jan-19 17:04 67.024405 -79.817839 67 35360ft 509kts
12-Jan-19 17:05 67.069272 -79.472691 68 35362ft 509kts
12-Jan-19 17:06 67.113002 -79.127914 67 35364ft 509kts
12-Jan-19 17:07 67.159570 -78.783412 68 35368ft 509kts
12-Jan-19 17:08 67.203589 -78.435838 68 35370ft 510kts
12-Jan-19 17:09 67.246599 -78.086561 69 35371ft 510kts
12-Jan-19 17:10 67.288670 -77.737185 69 35338ft 510kts
12-Jan-19 17:11 67.330195 -77.384697 70 35332ft 511kts
12-Jan-19 17:12 67.370901 -77.031380 70 35325ft 511kts
12-Jan-19 17:13 67.410707 -76.678000 71 35318ft 511kts
12-Jan-19 17:14 67.450029 -76.320683 71 35303ft 515kts
12-Jan-19 17:15 67.488636 -75.961616 71 35292ft 515kts
12-Jan-19 17:16 67.526509 -75.600718 71 35278ft 514kts
12-Jan-19 17:17 67.563560 -75.238825 72 35264ft 514kts
12-Jan-19 17:18 67.599706 -74.876792 72 35250ft 514kts
12-Jan-19 17:19 67.635039 -74.513713 72 35235ft 515kts
12-Jan-19 17:20 67.669776 -74.147241 73 35218ft 516kts
12-Jan-19 17:21 67.703621 -73.780418 73 35202ft 516kts
12-Jan-19 17:22 67.736612 -73.412805 74 35190ft 516kts
12-Jan-19 17:23 67.768886 -73.043027 74 35179ft 515kts
12-Jan-19 17:24 67.800151 -72.674210 75 35166ft 516kts
12-Jan-19 17:25 67.830675 -72.303292 75 35154ft 516kts
12-Jan-19 17:26 67.860316 -71.931959 75 35144ft 516kts
12-Jan-19 17:27 67.889270 -71.557681 76 35137ft 516kts
12-Jan-19 17:28 67.917306 -71.183401 76 35126ft 516kts
12-Jan-19 17:29 67.944572 -70.809812 76 35127ft 516kts
12-Jan-19 17:30 67.971560 -70.433843 78 35129ft 517kts
12-Jan-19 17:31 67.996372 -70.055683 78 35133ft 517kts
12-Jan-19 17:32 68.009573 -69.674121 85 35144ft 519kts
12-Jan-19 17:33 68.017902 -69.289803 85 35159ft 518kts
12-Jan-19 17:34 68.027713 -68.905852 84 35169ft 518kts
12-Jan-19 17:35 68.037835 -68.523560 86 35183ft 517kts
12-Jan-19 17:36 68.045777 -68.138376 86 35347ft 518kts
12-Jan-19 17:37 68.052664 -67.753495 87 35356ft 518kts
12-Jan-19 17:38 68.058619 -67.369675 87 35356ft 517kts
12-Jan-19 17:39 68.063690 -66.984910 88 35355ft 517kts
12-Jan-19 17:40 68.067862 -66.599709 88 35354ft 517kts
12-Jan-19 17:41 68.071142 -66.214869 89 35354ft 518kts
12-Jan-19 17:42 68.073519 -65.830175 89 35340ft 518kts
12-Jan-19 17:43 68.075003 -65.445213 90 35391ft 518kts
12-Jan-19 17:44 68.075595 -65.060377 90 35394ft 517kts
12-Jan-19 17:45 68.075289 -64.675215 91 35397ft 517kts
12-Jan-19 17:46 68.074082 -64.289601 91 35399ft 518kts
12-Jan-19 17:47 68.071979 -63.904122 92 35373ft 519kts
12-Jan-19 17:48 68.068975 -63.518271 92 35357ft 518kts
12-Jan-19 17:49 68.065070 -63.132528 93 35343ft 518kts
12-Jan-19 17:50 68.060280 -62.747835 93 35324ft 518kts
12-Jan-19 17:51 68.054583 -62.362552 94 35301ft 517kts
12-Jan-19 17:53 68.048013 -61.978778 94 35275ft 518kts
12-Jan-19 17:54 68.040542 -61.594602 95 35248ft 517kts
12-Jan-19 17:55 68.032167 -61.210072 95 35023ft 518kts
12-Jan-19 17:56 68.023054 -60.826363 94 34979ft 518kts
12-Jan-19 17:57 68.013596 -60.441308 96 34979ft 519kts
12-Jan-19 17:58 68.001796 -60.057984 97 34980ft 519kts
12-Jan-19 17:59 67.978514 -59.679454 104 34981ft 517kts
12-Jan-19 18:00 67.950406 -59.304442 104 34982ft 516kts
12-Jan-19 18:01 67.923749 -58.929630 102 34983ft 516kts
12-Jan-19 18:02 67.897481 -58.554599 104 34986ft 517kts
12-Jan-19 18:03 67.869022 -58.180870 104 35029ft 517kts
12-Jan-19 18:04 67.839494 -57.807109 105 35043ft 517kts
12-Jan-19 18:05 67.809217 -57.435794 105 35051ft 516kts
12-Jan-19 18:06 67.778052 -57.064908 106 35059ft 515kts
12-Jan-19 18:07 67.746200 -56.696750 106 35066ft 515kts
12-Jan-19 18:08 67.713348 -56.327695 106 35074ft 515kts
12-Jan-19 18:09 67.679796 -55.961085 107 35119ft 516kts
12-Jan-19 18:10 67.645414 -55.595446 107 35120ft 515kts
12-Jan-19 18:11 67.610280 -55.231588 108 35122ft 514kts
12-Jan-19 18:12 67.574295 -54.868387 108 35124ft 514kts
12-Jan-19 18:13 67.537545 -54.506755 108 35125ft 513kts
12-Jan-19 18:13 67.506390 -54.207050 109 35127ft 515kts
12-Jan-19 18:14 67.468103 -53.846869 109 35129ft 514kts
12-Jan-19 18:15 67.429074 -53.488344 109 35130ft 513kts
12-Jan-19 18:17 67.382759 -53.073507 110 35132ft 512kts
12-Jan-19 18:18 67.342093 -52.718180 110 35135ft 513kts
12-Jan-19 18:18 67.307761 -52.424292 111 35136ft 512kts
12-Jan-19 18:20 67.258583 -52.012482 111 35138ft 513kts
12-Jan-19 18:21 67.215590 -51.660819 111 35139ft 512kts
12-Jan-19 18:21 67.179298 -51.369677 112 35138ft 511kts
12-Jan-19 18:22 67.135106 -51.021859 112 35139ft 511kts
12-Jan-19 18:23 67.091153 -50.675474 112 35141ft 511kts
12-Jan-19 18:24 67.045195 -50.330846 113 35141ft 510kts
12-Jan-19 18:25 66.999818 -49.987259 108 35142ft 512kts
12-Jan-19 18:26 66.973878 -49.627428 103 35132ft 516kts
12-Jan-19 18:27 66.948000 -49.266700 104 35125ft 515kts
12-Jan-19 18:28 66.923540 -48.906527 103 35117ft 516kts
12-Jan-19 18:29 66.898070 -48.546974 104 35109ft 515kts
12-Jan-19 18:30 66.870920 -48.188268 104 35099ft 515kts
12-Jan-19 18:31 66.842954 -47.831573 105 35089ft 515kts
12-Jan-19 18:32 66.814173 -47.475691 105 35079ft 515kts
12-Jan-19 18:33 66.784469 -47.119206 105 35069ft 515kts
12-Jan-19 18:34 66.754080 -46.764920 106 35059ft 515kts
12-Jan-19 18:35 66.722915 -46.411703 106 35050ft 515kts
12-Jan-19 18:36 66.690855 -46.058248 107 35041ft 514kts
12-Jan-19 18:37 66.658136 -45.707094 107 35033ft 514kts
12-Jan-19 18:38 66.624647 -45.356991 107 35034ft 515kts
12-Jan-19 18:39 66.590393 -45.007961 107 35080ft 515kts
12-Jan-19 18:40 66.555226 -44.658541 108 35074ft 515kts
12-Jan-19 18:41 66.519370 -44.310969 108 35069ft 515kts
12-Jan-19 18:42 66.482652 -43.963468 108 35064ft 514kts
12-Jan-19 18:43 66.445347 -43.618681 109 35059ft 515kts
12-Jan-19 18:44 66.407178 -43.273993 109 35055ft 515kts
12-Jan-19 18:45 66.368192 -42.929844 109 35052ft 516kts
12-Jan-19 18:46 66.328379 -42.586167 109 35048ft 515kts
12-Jan-19 18:47 66.287886 -42.244212 110 35046ft 514kts
12-Jan-19 18:48 66.246882 -41.905297 110 35044ft 514kts
12-Jan-19 18:49 66.204979 -41.566177 110 35043ft 514kts
12-Jan-19 18:50 66.162335 -41.228148 110 35042ft 516kts
12-Jan-19 18:51 66.118755 -40.889691 111 35042ft 516kts
12-Jan-19 18:52 66.075723 -40.553100 111 35041ft 516kts
12-Jan-19 18:53 66.030028 -40.218409 112 35042ft 515kts
12-Jan-19 18:54 65.982909 -39.886026 114 35044ft 514kts
12-Jan-19 18:55 65.930331 -39.560462 115 35044ft 513kts
12-Jan-19 18:56 65.877402 -39.237770 115 35046ft 513kts
12-Jan-19 18:57 65.826553 -38.910876 114 35047ft 513kts
12-Jan-19 18:58 65.773863 -38.587806 115 35048ft 515kts
12-Jan-19 18:59 65.719938 -38.265254 115 35050ft 515kts
12-Jan-19 19:00 65.665146 -37.943275 115 35051ft 516kts
12-Jan-19 19:01 65.609692 -37.622777 116 35051ft 515kts
12-Jan-19 19:02 65.553561 -37.303638 116 35053ft 515kts
12-Jan-19 19:03 65.496981 -36.987072 116 35052ft 516kts
12-Jan-19 19:04 65.439426 -36.670159 117 35052ft 516kts
12-Jan-19 19:05 65.381162 -36.354370 117 35049ft 517kts
12-Jan-19 19:06 65.322362 -36.040631 117 35045ft 517kts
12-Jan-19 19:07 65.262769 -35.727538 117 35040ft 518kts
12-Jan-19 19:08 65.202274 -35.414570 118 35034ft 518kts
12-Jan-19 19:09 65.141504 -35.104923 118 35025ft 518kts
12-Jan-19 19:10 65.079778 -34.795075 118 35016ft 518kts
12-Jan-19 19:11 65.017482 -34.487007 118 35004ft 519kts
12-Jan-19 19:12 64.954609 -34.180689 119 34991ft 518kts
12-Jan-19 19:13 64.890859 -33.874533 119 34978ft 520kts
12-Jan-19 19:14 64.826573 -33.570285 119 34965ft 520kts
12-Jan-19 19:15 64.761616 -33.267256 120 34950ft 520kts
12-Jan-19 19:16 64.696104 -32.965962 120 34933ft 520kts
12-Jan-19 19:17 64.629948 -32.665963 120 34917ft 521kts
12-Jan-19 19:18 64.562854 -32.365954 121 34899ft 521kts
12-Jan-19 19:19 64.495428 -32.068620 121 34882ft 521kts
12-Jan-19 19:20 64.427398 -31.772719 121 34865ft 521kts
12-Jan-19 19:21 64.358576 -31.477429 121 34848ft 521kts
12-Jan-19 19:22 64.289133 -31.183482 122 34832ft 522kts
12-Jan-19 19:23 64.219031 -30.890701 122 34816ft 523kts
12-Jan-19 19:24 64.148464 -30.598246 121 34809ft 524kts
12-Jan-19 19:25 64.077071 -30.306916 123 34793ft 524kts
12-Jan-19 19:26 64.004481 -30.017855 123 34779ft 525kts
12-Jan-19 19:27 63.933721 -29.726827 122 34766ft 526kts
12-Jan-19 19:28 63.862120 -29.436749 123 34752ft 528kts
12-Jan-19 19:29 63.791177 -29.144842 122 34740ft 531kts
12-Jan-19 19:30 63.719209 -28.852521 123 34727ft 532kts
12-Jan-19 19:31 63.646148 -28.562757 123 34715ft 532kts
12-Jan-19 19:32 63.572344 -28.274209 124 34801ft 532kts
12-Jan-19 19:33 63.498096 -27.987708 124 34809ft 531kts
12-Jan-19 19:34 63.423118 -27.702101 124 34804ft 534kts
12-Jan-19 19:35 63.347176 -27.416499 125 34799ft 536kts
12-Jan-19 19:36 63.270254 -27.130888 125 34795ft 538kts
12-Jan-19 19:37 63.192745 -26.846738 126 34792ft 539kts
12-Jan-19 19:38 63.114620 -26.563923 126 34789ft 540kts
12-Jan-19 19:39 63.035446 -26.280899 127 34787ft 541kts
12-Jan-19 19:40 62.955966 -26.000301 127 34668ft 542kts
12-Jan-19 19:41 62.875452 -25.719565 127 34646ft 544kts
12-Jan-19 19:42 62.794109 -25.439439 128 34642ft 545kts
12-Jan-19 19:43 62.712388 -25.161457 128 34638ft 546kts
12-Jan-19 19:44 62.629843 -24.884081 128 34630ft 547kts
12-Jan-19 19:45 62.546312 -24.606791 129 34629ft 549kts
12-Jan-19 19:46 62.462053 -24.330462 130 34628ft 551kts
12-Jan-19 19:47 62.377069 -24.055135 130 34628ft 553kts
12-Jan-19 19:48 62.291296 -23.780542 130 34630ft 553kts
12-Jan-19 19:49 62.204742 -23.506766 131 34627ft 552kts
12-Jan-19 19:50 62.118277 -23.236500 131 34619ft 553kts
12-Jan-19 19:51 62.030698 -22.965963 131 34621ft 553kts
12-Jan-19 19:52 61.942498 -22.696606 132 34623ft 560kts
12-Jan-19 19:53 61.852995 -22.426637 132 34587ft 559kts
12-Jan-19 19:54 61.763039 -22.158381 132 34587ft 558kts
12-Jan-19 19:55 61.672991 -21.892932 133 34536ft 558kts
12-Jan-19 19:56 61.582126 -21.628144 133 34524ft 559kts
12-Jan-19 19:57 61.490124 -21.363115 134 34518ft 563kts
12-Jan-19 19:58 61.397376 -21.098972 134 34519ft 565kts
12-Jan-19 19:59 61.303709 -20.835249 135 34522ft 566kts
12-Jan-19 20:00 61.209320 -20.572479 135 34525ft 568kts
12-Jan-19 20:01 61.114755 -20.310187 136 34528ft 569kts
12-Jan-19 20:02 61.018729 -20.050559 136 34551ft 569kts
12-Jan-19 20:03 60.911173 -19.815475 146 34558ft 559kts
12-Jan-19 20:04 60.799652 -19.592850 146 34566ft 562kts
12-Jan-19 20:05 60.688624 -19.367302 146 34575ft 564kts
12-Jan-19 20:06 60.577089 -19.143148 146 34583ft 562kts
12-Jan-19 20:08 60.464981 -18.921252 147 34591ft 563kts
12-Jan-19 20:09 60.351878 -18.699772 147 34582ft 565kts
12-Jan-19 20:10 60.238581 -18.480179 147 34589ft 567kts
12-Jan-19 20:11 60.123981 -18.260300 148 34601ft 570kts
12-Jan-19 20:12 60.008887 -18.041718 148 34610ft 570kts
12-Jan-19 20:13 59.893853 -17.825403 148 34621ft 569kts
12-Jan-19 20:14 59.778285 -17.610259 149 34632ft 568kts
12-Jan-19 20:15 59.662808 -17.397413 149 34643ft 566kts
12-Jan-19 20:16 59.547041 -17.186124 149 34656ft 567kts
12-Jan-19 20:17 59.430676 -16.975838 149 34665ft 566kts
12-Jan-19 20:18 59.314450 -16.767798 149 34682ft 567kts
12-Jan-19 20:19 59.197581 -16.560639 149 34696ft 566kts
12-Jan-19 20:20 59.080704 -16.355459 149 34711ft 565kts
12-Jan-19 20:21 58.963896 -16.152345 149 34725ft 564kts
12-Jan-19 20:22 58.846685 -15.950471 149 34742ft 563kts
12-Jan-19 20:23 58.729528 -15.750560 149 34758ft 562kts
12-Jan-19 20:23 58.631514 -15.584750 149 34772ft 562kts
12-Jan-19 20:25 58.494138 -15.354508 149 34793ft 561kts
12-Jan-19 20:26 58.376726 -15.159689 149 34856ft 560kts
12-Jan-19 20:27 58.258575 -14.965436 149 34909ft 562kts
12-Jan-19 20:28 58.140023 -14.772303 149 34925ft 562kts
12-Jan-19 20:29 58.021065 -14.580252 149 34940ft 561kts
12-Jan-19 20:30 57.902473 -14.390531 149 34956ft 559kts
12-Jan-19 20:30 57.802975 -14.232645 149 34903ft 561kts
12-Jan-19 20:31 57.683662 -14.044876 149 34910ft 560kts
12-Jan-19 20:32 57.564361 -13.858781 149 34947ft 559kts
12-Jan-19 20:33 57.444686 -13.673747 149 34954ft 558kts
12-Jan-19 20:34 57.324985 -13.490278 149 34960ft 557kts
12-Jan-19 20:35 57.205885 -13.308264 149 34967ft 555kts
12-Jan-19 20:36 57.086469 -13.128945 149 34974ft 554kts
12-Jan-19 20:37 56.963814 -12.960235 159 34982ft 543kts
12-Jan-19 20:38 56.832758 -12.828557 160 34990ft 537kts
12-Jan-19 20:39 56.706087 -12.680147 154 34998ft 544kts
12-Jan-19 20:40 56.580462 -12.526724 154 35004ft 542kts
12-Jan-19 20:41 56.454942 -12.373881 154 35017ft 542kts
12-Jan-19 20:42 56.330037 -12.223094 154 35026ft 541kts
12-Jan-19 20:43 56.204422 -12.073275 154 35037ft 541kts
12-Jan-19 20:44 56.078830 -11.924731 154 35049ft 543kts
12-Jan-19 20:45 55.952443 -11.776462 155 35061ft 542kts
12-Jan-19 20:46 55.825947 -11.629235 154 35073ft 543kts
12-Jan-19 20:47 55.699743 -11.483489 154 35085ft 542kts
12-Jan-19 20:48 55.572635 -11.337848 154 35130ft 542kts
12-Jan-19 20:49 55.446159 -11.194061 154 35149ft 542kts
12-Jan-19 20:50 55.318995 -11.050594 154 35148ft 542kts
12-Jan-19 20:51 55.191817 -10.908221 154 35168ft 542kts
12-Jan-19 20:52 55.064732 -10.767040 154 35199ft 542kts
12-Jan-19 20:53 54.937737 -10.627031 154 35261ft 541kts
12-Jan-19 20:54 54.810342 -10.487627 154 35264ft 539kts
12-Jan-19 20:55 54.683239 -10.348875 153 35269ft 539kts
12-Jan-19 20:56 54.556497 -10.212678 153 35274ft 537kts
12-Jan-19 20:57 54.428255 -10.081692 158 35281ft 534kts
12-Jan-19 20:58 54.295415 -9.970596 159 35287ft 530kts
12-Jan-19 20:59 54.162749 -9.859246 159 35316ft 531kts
12-Jan-19 21:00 54.030762 -9.747150 159 35317ft 531kts
12-Jan-19 21:01 53.897991 -9.636048 159 35317ft 530kts
12-Jan-19 21:02 53.765905 -9.526444 159 35317ft 529kts
12-Jan-19 21:03 53.633148 -9.417065 159 35327ft 529kts
12-Jan-19 21:04 53.501163 -9.309091 158 35330ft 529kts
12-Jan-19 21:05 53.368926 -9.201662 158 35334ft 528kts
12-Jan-19 21:06 53.236055 -9.094464 158 35336ft 528kts
12-Jan-19 21:07 53.103965 -8.988630 158 35336ft 528kts
12-Jan-19 21:08 52.971405 -8.883145 158 35320ft 527kts
12-Jan-19 21:09 52.839034 -8.778529 158 35318ft 527kts
12-Jan-19 21:10 52.706480 -8.674475 158 35318ft 527kts
12-Jan-19 21:11 52.573675 -8.570927 157 35328ft 527kts
12-Jan-19 21:12 52.440759 -8.467989 157 35337ft 528kts
12-Jan-19 21:13 52.308059 -8.365898 157 35322ft 528kts
12-Jan-19 21:14 52.174678 -8.263970 157 35326ft 528kts
12-Jan-19 21:15 52.041573 -8.162924 157 35328ft 529kts
12-Jan-19 21:16 51.907915 -8.062125 157 35327ft 529kts
12-Jan-19 21:17 51.774796 -7.962391 157 35331ft 528kts
12-Jan-19 21:18 51.641054 -7.862840 157 35338ft 528kts
12-Jan-19 21:19 51.507951 -7.764121 157 35346ft 527kts
12-Jan-19 21:20 51.374472 -7.666056 157 35354ft 527kts
12-Jan-19 21:21 51.244331 -7.559445 139 35364ft 526kts
12-Jan-19 21:22 51.148001 -7.384330 126 35375ft 525kts
12-Jan-19 21:23 51.058212 -7.201757 126 35387ft 524kts
12-Jan-19 21:24 50.968476 -7.019854 126 35410ft 523kts
12-Jan-19 21:25 50.878156 -6.838928 126 35425ft 522kts
12-Jan-19 21:26 50.787675 -6.659565 126 35430ft 522kts
12-Jan-19 21:27 50.696808 -6.480753 126 35438ft 520kts
12-Jan-19 21:28 50.606088 -6.303456 126 35448ft 519kts
12-Jan-19 21:29 50.515357 -6.127339 126 35417ft 518kts
12-Jan-19 21:30 50.424644 -5.952442 126 35417ft 516kts
12-Jan-19 21:31 50.333720 -5.778307 126 35417ft 517kts
12-Jan-19 21:32 50.242396 -5.604571 126 35397ft 517kts
12-Jan-19 21:33 50.150559 -5.431017 127 35369ft 518kts
12-Jan-19 21:34 50.058661 -5.258494 127 35349ft 519kts
12-Jan-19 21:35 49.965914 -5.085528 126 35359ft 519kts
12-Jan-19 21:36 49.874258 -4.914641 126 35351ft 516kts
12-Jan-19 21:37 49.781520 -4.744579 126 35353ft 518kts
12-Jan-19 21:38 49.710665 -4.556403 100 35359ft 505kts
12-Jan-19 21:39 49.687307 -4.345196 92 35366ft 497kts
12-Jan-19 21:40 49.665412 -4.134291 93 35403ft 500kts
12-Jan-19 21:41 49.645619 -3.922213 89 35393ft 497kts
12-Jan-19 21:42 49.632876 -3.710462 89 35390ft 495kts
12-Jan-19 21:43 49.619033 -3.499373 89 35387ft 494kts
12-Jan-19 21:44 49.606161 -3.288486 89 35339ft 492kts
12-Jan-19 21:45 49.592289 -3.079170 89 35333ft 491kts
12-Jan-19 21:46 49.577846 -2.869459 89 35329ft 492kts
12-Jan-19 21:47 49.562985 -2.659526 89 35325ft 492kts
12-Jan-19 21:48 49.547738 -2.449652 89 35325ft 493kts
12-Jan-19 21:49 49.532125 -2.240048 89 35333ft 495kts
12-Jan-19 21:50 49.516637 -2.029879 89 35320ft 495kts
12-Jan-19 21:51 49.499769 -1.818991 89 35292ft 496kts
12-Jan-19 21:52 49.482701 -1.608600 89 35257ft 495kts
12-Jan-19 21:53 49.465128 -1.399615 89 35238ft 494kts
12-Jan-19 21:54 49.447107 -1.190147 90 35236ft 492kts
12-Jan-19 21:55 49.445311 -1.169484 90 35236ft 492kts
12-Jan-19 21:56 49.445311 -1.169484 90 35236ft 492kts
12-Jan-19 21:57 49.445311 -1.169484 90 35236ft 492kts
12-Jan-19 21:58 49.445311 -1.169484 90 35236ft 492kts
12-Jan-19 21:59 49.445311 -1.169484 90 35236ft 492kts
12-Jan-19 22:00 49.445311 -1.169484 90 35236ft 492kts
12-Jan-19 22:01 49.445311 -1.169484 90 35236ft 492kts
12-Jan-19 22:02 49.445311 -1.169484 90 35236ft 492kts
12-Jan-19 22:03 49.445311 -1.169484 90 35236ft 492kts
12-Jan-19 22:04 49.445311 -1.169484 90 35236ft 492kts
12-Jan-19 22:05 49.445311 -1.169484 90 35236ft 492kts
12-Jan-19 22:06 49.445311 -1.169484 90 35236ft 492kts
12-Jan-19 22:07 49.445311 -1.169484 90 35236ft 492kts
12-Jan-19 22:08 49.445311 -1.169484 90 35236ft 492kts
12-Jan-19 22:09 49.445311 -1.169484 90 35236ft 492kts
12-Jan-19 22:10 49.445311 -1.169484 90 35236ft 492kts
12-Jan-19 22:11 49.445311 -1.169484 90 35236ft 492kts
12-Jan-19 22:12 49.445311 -1.169484 90 35236ft 492kts
12-Jan-19 22:13 49.445311 -1.169484 90 35236ft 492kts
12-Jan-19 22:14 49.445311 -1.169484 90 35236ft 492kts
12-Jan-19 22:15 49.445311 -1.169484 90 35236ft 492kts
12-Jan-19 22:16 49.445311 -1.169484 90 35236ft 492kts
12-Jan-19 22:17 49.445311 -1.169484 90 35236ft 492kts
12-Jan-19 22:18 49.445311 -1.169484 90 35236ft 492kts
12-Jan-19 22:20 49.445311 -1.169484 90 35236ft 492kts
12-Jan-19 22:21 49.445311 -1.169484 90 35236ft 492kts
12-Jan-19 22:22 49.445311 -1.169484 90 35236ft 492kts
12-Jan-19 22:23 49.445311 -1.169484 90 35236ft 492kts
12-Jan-19 22:24 49.445311 -1.169484 90 35236ft 492kts
12-Jan-19 22:25 49.445311 -1.169484 90 35236ft 492kts
12-Jan-19 22:26 49.445311 -1.169484 90 35236ft 492kts
12-Jan-19 22:27 49.445311 -1.169484 90 35236ft 492kts
12-Jan-19 22:28 49.445311 -1.169484 90 35236ft 492kts
12-Jan-19 22:29 49.445311 -1.169484 90 35236ft 492kts
12-Jan-19 22:30 49.445311 -1.169484 90 35236ft 492kts
12-Jan-19 22:31 49.445311 -1.169484 90 35236ft 492kts
12-Jan-19 22:32 49.445311 -1.169484 90 35236ft 492kts
12-Jan-19 22:33 49.445311 -1.169484 90 35236ft 492kts
12-Jan-19 22:34 49.445311 -1.169484 90 35236ft 492kts
12-Jan-19 22:35 49.445311 -1.169484 90 35236ft 492kts
12-Jan-19 22:36 49.445311 -1.169484 90 35236ft 492kts
12-Jan-19 22:37 49.445311 -1.169484 90 35236ft 492kts
12-Jan-19 22:38 49.445311 -1.169484 90 35236ft 492kts
12-Jan-19 22:39 49.445311 -1.169484 90 35236ft 492kts
12-Jan-19 22:40 49.445311 -1.169484 90 35236ft 492kts
12-Jan-19 22:41 49.445311 -1.169484 90 35236ft 492kts
12-Jan-19 22:42 49.445311 -1.169484 90 35236ft 492kts
12-Jan-19 22:43 49.445311 -1.169484 90 35236ft 492kts
12-Jan-19 22:44 49.445311 -1.169484 90 35236ft 492kts
12-Jan-19 22:44 49.445311 -1.169484 90 35236ft 492kts
12-Jan-19 22:45 49.445311 -1.169484 90 35236ft 492kts
12-Jan-19 22:46 49.445311 -1.169484 90 35236ft 492kts
12-Jan-19 22:47 49.445311 -1.169484 90 35236ft 492kts
12-Jan-19 22:48 49.445311 -1.169484 90 35236ft 492kts
12-Jan-19 22:49 49.445311 -1.169484 90 35236ft 492kts
12-Jan-19 22:50 49.445311 -1.169484 90 35236ft 492kts
12-Jan-19 22:51 49.445311 -1.169484 90 35236ft 492kts
12-Jan-19 22:52 49.445311 -1.169484 90 35236ft 492kts
12-Jan-19 22:53 49.445311 -1.169484 90 35236ft 492kts
12-Jan-19 22:54 49.445311 -1.169484 90 35236ft 492kts
12-Jan-19 22:55 49.445311 -1.169484 90 35236ft 492kts
12-Jan-19 22:56 49.445311 -1.169484 90 35236ft 492kts
12-Jan-19 22:57 49.445311 -1.169484 90 35236ft 492kts
12-Jan-19 22:58 49.445311 -1.169484 90 35236ft 492kts
12-Jan-19 22:59 49.445311 -1.169484 90 35236ft 492kts
12-Jan-19 23:00 49.445311 -1.169484 90 35236ft 492kts
12-Jan-19 23:01 49.445311 -1.169484 90 35236ft 492kts
12-Jan-19 23:02 49.445311 -1.169484 90 35236ft 492kts
12-Jan-19 23:03 49.445311 -1.169484 90 35236ft 492kts
12-Jan-19 23:04 49.445311 -1.169484 90 35236ft 492kts
12-Jan-19 23:05 49.445311 -1.169484 90 35236ft 492kts
12-Jan-19 23:06 49.445311 -1.169484 90 35236ft 492kts
12-Jan-19 23:07 49.445311 -1.169484 90 35236ft 492kts
12-Jan-19 23:08 49.445311 -1.169484 90 35236ft 492kts
12-Jan-19 23:09 49.445311 -1.169484 90 35236ft 492kts
12-Jan-19 23:10 49.445311 -1.169484 90 35236ft 492kts
12-Jan-19 23:11 49.445311 -1.169484 90 35236ft 492kts
12-Jan-19 23:12 49.445311 -1.169484 90 35236ft 492kts
12-Jan-19 23:13 49.445311 -1.169484 90 35236ft 492kts
12-Jan-19 23:14 49.445311 -1.169484 90 35236ft 492kts
12-Jan-19 23:15 49.445311 -1.169484 90 35236ft 492kts
12-Jan-19 23:16 49.445311 -1.169484 90 35236ft 492kts
12-Jan-19 23:17 49.445311 -1.169484 90 35236ft 492kts
12-Jan-19 23:18 49.445311 -1.169484 90 35236ft 492kts
12-Jan-19 23:19 49.445311 -1.169484 90 35236ft 492kts
12-Jan-19 23:20 49.445311 -1.169484 90 35236ft 492kts
12-Jan-19 23:21 49.445311 -1.169484 90 35236ft 492kts
12-Jan-19 23:22 49.445311 -1.169484 90 35236ft 492kts
12-Jan-19 23:23 49.445311 -1.169484 90 35236ft 492kts
12-Jan-19 23:24 49.445311 -1.169484 90 35236ft 492kts
12-Jan-19 23:25 49.445311 -1.169484 90 35236ft 492kts
12-Jan-19 23:26 49.445311 -1.169484 90 35236ft 492kts
12-Jan-19 23:27 49.445311 -1.169484 90 35236ft 492kts
12-Jan-19 23:28 49.445311 -1.169484 90 35236ft 492kts
12-Jan-19 23:29 49.445311 -1.169484 90 35236ft 492kts
12-Jan-19 23:30 49.445311 -1.169484 90 35236ft 492kts
12-Jan-19 23:31 49.445311 -1.169484 90 35236ft 492kts
12-Jan-19 23:32 49.445311 -1.169484 90 35236ft 492kts
12-Jan-19 23:33 49.445311 -1.169484 90 35236ft 492kts
12-Jan-19 23:34 49.445311 -1.169484 90 35236ft 492kts
12-Jan-19 23:35 49.445311 -1.169484 90 35236ft 492kts
12-Jan-19 23:36 49.445311 -1.169484 90 35236ft 492kts
12-Jan-19 23:37 49.445311 -1.169484 90 35236ft 492kts
12-Jan-19 23:38 49.445311 -1.169484 90 35236ft 492kts
12-Jan-19 23:39 49.445311 -1.169484 90 35236ft 492kts
12-Jan-19 23:40 49.445311 -1.169484 90 35236ft 492kts
12-Jan-19 23:41 49.445311 -1.169484 90 35236ft 492kts
12-Jan-19 23:42 49.445311 -1.169484 90 35236ft 492kts
12-Jan-19 23:43 49.445311 -1.169484 90 35236ft 492kts
12-Jan-19 23:44 49.445311 -1.169484 90 35236ft 492kts
12-Jan-19 23:45 49.445311 -1.169484 90 35236ft 492kts
12-Jan-19 23:46 49.445311 -1.169484 90 35236ft 492kts
12-Jan-19 23:47 49.445311 -1.169484 90 35236ft 492kts
12-Jan-19 23:48 49.445311 -1.169484 90 35236ft 492kts
12-Jan-19 23:49 49.445311 -1.169484 90 35236ft 492kts
12-Jan-19 23:50 49.445311 -1.169484 90 35236ft 492kts
12-Jan-19 23:51 49.445311 -1.169484 90 35236ft 492kts
12-Jan-19 23:52 49.445311 -1.169484 90 35236ft 492kts
12-Jan-19 23:53 49.445311 -1.169484 90 35236ft 492kts
12-Jan-19 23:54 49.445311 -1.169484 90 35236ft 492kts
12-Jan-19 23:55 49.445311 -1.169484 90 35236ft 492kts
12-Jan-19 23:56 49.445311 -1.169484 90 35236ft 492kts
12-Jan-19 23:57 49.445311 -1.169484 90 35236ft 492kts
12-Jan-19 23:58 49.445311 -1.169484 90 35236ft 492kts
12-Jan-19 23:59 49.445311 -1.169484 90 35236ft 492kts
13-Jan-19 00:00 49.445311 -1.169484 90 35236ft 492kts
13-Jan-19 00:01 49.445311 -1.169484 90 35236ft 492kts
13-Jan-19 00:02 49.445311 -1.169484 90 35236ft 492kts
13-Jan-19 00:03 49.445311 -1.169484 90 35236ft 492kts
13-Jan-19 00:04 49.445311 -1.169484 90 35236ft 492kts
13-Jan-19 00:05 49.445311 -1.169484 90 35236ft 492kts
13-Jan-19 00:06 49.445311 -1.169484 90 35236ft 492kts
13-Jan-19 00:07 49.445311 -1.169484 90 35236ft 492kts
13-Jan-19 00:08 49.445311 -1.169484 90 35236ft 492kts
13-Jan-19 00:09 49.445311 -1.169484 90 35236ft 492kts
13-Jan-19 00:10 49.445311 -1.169484 90 35236ft 492kts
13-Jan-19 00:11 49.445311 -1.169484 90 35236ft 492kts
13-Jan-19 00:12 49.445311 -1.169484 90 35236ft 492kts
13-Jan-19 00:13 49.445311 -1.169484 90 35236ft 492kts
13-Jan-19 00:14 49.445311 -1.169484 90 35236ft 492kts
13-Jan-19 00:15 49.445311 -1.169484 90 35236ft 492kts
13-Jan-19 00:16 49.445311 -1.169484 90 35236ft 492kts
13-Jan-19 00:17 49.445311 -1.169484 90 35236ft 492kts
13-Jan-19 00:18 49.445311 -1.169484 90 35236ft 492kts
13-Jan-19 00:19 49.445311 -1.169484 90 35236ft 492kts
13-Jan-19 00:20 49.445311 -1.169484 90 35236ft 492kts
13-Jan-19 00:21 49.445311 -1.169484 90 35236ft 492kts
13-Jan-19 00:22 49.445311 -1.169484 90 35236ft 492kts
13-Jan-19 00:23 49.445311 -1.169484 90 35236ft 492kts
13-Jan-19 00:24 49.445311 -1.169484 90 35236ft 492kts
13-Jan-19 00:25 49.445311 -1.169484 90 35236ft 492kts
13-Jan-19 00:26 49.445311 -1.169484 90 35236ft 492kts
13-Jan-19 00:27 49.445311 -1.169484 90 35236ft 492kts
13-Jan-19 00:28 49.445311 -1.169484 90 35236ft 492kts
13-Jan-19 00:29 49.445311 -1.169484 90 35236ft 492kts
13-Jan-19 00:30 49.445311 -1.169484 90 35236ft 492kts
13-Jan-19 00:31 49.445311 -1.169484 90 35236ft 492kts
13-Jan-19 00:32 49.445311 -1.169484 90 35236ft 492kts
13-Jan-19 00:33 49.445311 -1.169484 90 35236ft 492kts
13-Jan-19 00:34 49.445311 -1.169484 90 35236ft 492kts
13-Jan-19 00:35 49.445311 -1.169484 90 35236ft 492kts
13-Jan-19 00:37 49.445311 -1.169484 90 35236ft 492kts
13-Jan-19 00:38 49.439841 -1.101381 90 35208ft 498kts
13-Jan-19 00:39 49.422047 -0.889129 91 35203ft 498kts
13-Jan-19 00:40 49.404694 -0.687727 90 34308ft 464kts
13-Jan-19 00:41 49.387198 -0.493883 91 32675ft 451kts
13-Jan-19 00:42 49.369642 -0.306049 92 31079ft 438kts
13-Jan-19 00:43 49.356077 -0.122943 89 29490ft 424kts
13-Jan-19 00:44 49.345254 0.055301 88 27880ft 417kts
13-Jan-19 00:45 49.334006 0.231118 88 26260ft 410kts
13-Jan-19 00:46 49.322236 0.402762 88 24663ft 400kts
13-Jan-19 00:47 49.331391 0.561048 63 23736ft 356kts
13-Jan-19 00:48 49.380950 0.680400 20 22738ft 316kts
13-Jan-19 00:49 49.462549 0.718300 4 21757ft 303kts
13-Jan-19 00:50 49.541942 0.765257 19 20877ft 308kts
13-Jan-19 00:51 49.618137 0.823664 26 20000ft 308kts
13-Jan-19 00:52 49.685275 0.908155 31 19109ft 309kts
13-Jan-19 00:53 49.746504 1.001506 45 18212ft 317kts
13-Jan-19 00:54 49.784860 1.123809 86 17280ft 351kts
13-Jan-19 00:55 49.722099 1.234830 152 16016ft 364kts
13-Jan-19 00:56 49.630695 1.299399 154 14956ft 359kts
13-Jan-19 00:57 49.541646 1.367295 152 13947ft 354kts
13-Jan-19 00:57 49.470137 1.427681 151 13115ft 351kts
13-Jan-19 00:58 49.385142 1.499134 152 12122ft 345kts
13-Jan-19 00:59 49.310437 1.584593 111 11127ft 333kts
13-Jan-19 01:00 49.292252 1.718671 85 10332ft 314kts
13-Jan-19 01:01 49.277028 1.841514 100 9769ft 271kts
13-Jan-19 01:02 49.254124 1.952742 101 9343ft 273kts
13-Jan-19 01:03 49.232858 2.059231 100 8932ft 254kts
13-Jan-19 01:04 49.210346 2.172637 101 8507ft 283kts
13-Jan-19 01:05 49.187976 2.286878 100 8056ft 278kts
13-Jan-19 01:06 49.166104 2.400160 101 7617ft 277kts
13-Jan-19 01:07 49.143104 2.516479 101 7171ft 287kts
13-Jan-19 01:08 49.121321 2.627894 102 6623ft 247kts
13-Jan-19 01:09 49.103676 2.714914 101 6424ft 203kts
13-Jan-19 01:10 49.084076 2.796000 116 5075ft 209kts
13-Jan-19 01:11 49.051205 2.852497 200 4257ft 180kts
13-Jan-19 01:12 49.038580 2.793639 272 4355ft 151kts
13-Jan-19 01:13 49.035760 2.731419 270 2957ft 152kts
13-Jan-19 01:14 49.032441 2.669257 268 1773ft 138kts
13-Jan-19 01:15 49.029276 2.610252 267 1039ft 141kts
13-Jan-19 01:16 49.026091 2.550863 265 406ft 113kts
13-Jan-19 01:17 49.024680 2.539806 243 405ft 0kts
13-Jan-19 01:18 49.024680 2.539806 243 405ft 0kts
13-Jan-19 01:19 49.024680 2.539806 243 405ft 0kts
13-Jan-19 01:20 49.024680 2.539806 243 405ft 0kts
13-Jan-19 01:21 49.024680 2.539806 243 405ft 0kts
13-Jan-19 01:22 49.024680 2.539806 243 405ft 0kts
13-Jan-19 01:23 49.024680 2.539806 243 405ft 0kts
13-Jan-19 01:24 49.024680 2.539806 243 405ft 0kts
13-Jan-19 01:25 49.024680 2.539806 243 405ft 0kts
13-Jan-19 01:26 49.024680 2.539806 243 405ft 0kts
13-Jan-19 01:27 49.024680 2.539806 243 405ft 0kts
13-Jan-19 01:28 49.024680 2.539806 243 405ft 0kts
13-Jan-19 01:29 49.024680 2.539806 243 405ft 0kts
13-Jan-19 01:30 49.024680 2.539806 243 405ft 0kts
13-Jan-19 01:31 49.024680 2.539806 243 405ft 0kts
13-Jan-19 01:32 49.024680 2.539806 243 405ft 0kts

Navigation Log

Ident Type
Flight plan parsing failed, navigation log unavailable